Portola, California
Current Conditions -  °F | °C
As of 10:55 AM on Friday 24 Oct 2014 (Local Time) from KRTS Reporting Station
Clear Clear  
Wind Chill: 66°   Ceiling: Unl
Heat Index: 66°   Visibility: 10mi
Dew Point: 25°   Wind: 7mph
Humidity: 21%   Direction: 110°ESE
Pressure: 30.08"   Gusts: NA
Location:  39.81°N, 120.47°W
Report Text: KRTS 241755Z AUTO 11006KT 10SM CLR 19/M04 A3008 RMK AO2
Loading
Personal Weather Stations






























Interactive Weather Map
Tropical Storm Tracking
New forecast layout! Learn more

10-Day Weather Forecast

Advertisements
Track Severe Weather on mobile